createdAt,value
2019-03-25T00:00:57.864Z,5.52
2019-03-25T00:01:57.854Z,5.49
2019-03-25T00:02:57.842Z,5.56
2019-03-25T00:03:57.831Z,5.50
2019-03-25T00:04:57.832Z,5.55
2019-03-25T00:05:57.810Z,5.50
2019-03-25T00:06:57.802Z,5.46
2019-03-25T00:07:57.788Z,5.53
2019-03-25T00:09:04.791Z,5.41
2019-03-25T00:09:58.781Z,5.56
2019-03-25T00:10:57.757Z,5.46
2019-03-25T00:11:57.747Z,5.52
2019-03-25T00:12:57.789Z,5.49
2019-03-25T00:13:57.724Z,5.40
2019-03-25T00:14:57.714Z,5.38
2019-03-25T00:15:57.714Z,5.37
2019-03-25T00:16:57.693Z,5.34
2019-03-25T00:17:57.682Z,5.49
2019-03-25T00:18:57.674Z,5.49
2019-03-25T00:19:57.660Z,5.43
2019-03-25T00:20:57.651Z,5.43
2019-03-25T00:21:57.650Z,5.46
2019-03-25T00:22:57.628Z,5.41
2019-03-25T00:23:57.618Z,5.46
2019-03-25T00:24:57.606Z,5.50
2019-03-25T00:25:57.595Z,5.52
2019-03-25T00:26:57.585Z,5.50
2019-03-25T00:27:57.588Z,5.48
2019-03-25T00:28:57.565Z,5.48
2019-03-25T00:29:57.553Z,5.50
2019-03-25T00:30:57.543Z,5.48
2019-03-25T00:31:57.536Z,5.53
2019-03-25T00:32:57.521Z,5.56
2019-03-25T00:33:57.534Z,5.46
2019-03-25T00:34:57.555Z,5.43
2019-03-25T00:35:57.491Z,5.43
2019-03-25T00:36:57.480Z,5.49
2019-03-25T00:37:57.469Z,5.50
2019-03-25T00:38:57.461Z,5.50
2019-03-25T00:39:57.461Z,5.40
2019-03-25T00:40:57.437Z,5.49
2019-03-25T00:41:57.426Z,5.56
2019-03-25T00:42:57.417Z,5.46
2019-03-25T00:43:57.406Z,5.49
2019-03-25T00:44:57.395Z,5.52
2019-03-25T00:45:57.401Z,5.53
2019-03-25T00:46:57.374Z,5.55
2019-03-25T00:47:57.363Z,5.53
2019-03-25T00:48:57.353Z,5.50
2019-03-25T00:49:57.343Z,5.50
2019-03-25T00:50:57.333Z,5.57
2019-03-25T00:51:57.333Z,5.52
2019-03-25T00:52:57.311Z,5.56
2019-03-25T00:53:57.300Z,5.57
2019-03-25T00:54:57.290Z,5.55
2019-03-25T00:55:57.281Z,5.64
2019-03-25T00:56:57.269Z,5.64
2019-03-25T00:57:57.269Z,5.66
2019-03-25T00:58:57.251Z,5.59
2019-03-25T00:59:57.238Z,5.66
2019-03-25T01:00:57.227Z,5.67
2019-03-25T01:01:57.216Z,5.66
2019-03-25T01:02:57.206Z,5.66
2019-03-25T01:03:57.205Z,5.68
2019-03-25T01:04:57.185Z,5.75
2019-03-25T01:05:57.174Z,5.74
2019-03-25T01:06:57.164Z,5.71
2019-03-25T01:07:57.153Z,5.82
2019-03-25T01:08:57.142Z,5.73
2019-03-25T01:09:57.145Z,5.74
2019-03-25T01:10:57.121Z,5.74
2019-03-25T01:11:57.111Z,5.70
2019-03-25T01:12:57.102Z,5.75
2019-03-25T01:13:57.089Z,5.75
2019-03-25T01:14:57.078Z,5.89
2019-03-25T01:15:57.080Z,5.81
2019-03-25T01:16:57.058Z,5.81
2019-03-25T01:17:57.047Z,5.85
2019-03-25T01:18:57.037Z,5.92
2019-03-25T01:19:57.027Z,5.82
2019-03-25T01:20:57.023Z,5.86
2019-03-25T01:21:57.016Z,5.86
2019-03-25T01:22:56.996Z,5.81
2019-03-25T01:23:56.984Z,5.88
2019-03-25T01:25:01.924Z,5.89
2019-03-25T01:25:57.961Z,5.96
2019-03-25T01:26:56.952Z,5.98
2019-03-25T01:27:56.954Z,6.01
2019-03-25T01:28:56.930Z,6.01
2019-03-25T01:29:56.920Z,6.03
2019-03-25T01:30:56.911Z,6.00
2019-03-25T01:31:56.897Z,5.98
2019-03-25T01:32:56.887Z,5.96
2019-03-25T01:33:56.893Z,5.95
2019-03-25T01:34:56.865Z,5.98
2019-03-25T01:35:56.855Z,5.96
2019-03-25T01:36:56.844Z,5.93
2019-03-25T01:37:56.834Z,5.93
2019-03-25T01:38:56.824Z,6.00
2019-03-25T01:39:56.835Z,6.01
2019-03-25T01:40:56.801Z,6.00
2019-03-25T01:41:56.790Z,6.04
2019-03-25T01:42:56.780Z,6.10
2019-03-25T01:43:56.769Z,6.11
2019-03-25T01:44:56.759Z,6.09
2019-03-25T01:45:56.759Z,6.07
2019-03-25T01:46:56.737Z,6.06
2019-03-25T01:47:56.726Z,6.11
2019-03-25T01:48:56.715Z,6.01
2019-03-25T01:49:56.705Z,5.98
2019-03-25T01:50:56.695Z,5.98
2019-03-25T01:51:56.705Z,5.96
2019-03-25T01:52:56.673Z,5.92
2019-03-25T01:53:56.662Z,5.93
2019-03-25T01:54:56.651Z,5.91
2019-03-25T01:55:56.641Z,6.00
2019-03-25T01:56:56.631Z,5.89
2019-03-25T01:57:56.630Z,5.89
2019-03-25T01:58:56.613Z,5.93
2019-03-25T01:59:56.599Z,5.93
2019-03-25T02:00:56.588Z,5.91
2019-03-25T02:01:56.577Z,5.93
2019-03-25T02:02:56.569Z,5.89
2019-03-25T02:03:56.571Z,5.89
2019-03-25T02:04:56.546Z,5.92
2019-03-25T02:05:56.539Z,5.83
2019-03-25T02:06:56.525Z,5.89
2019-03-25T02:07:56.514Z,5.85
2019-03-25T02:08:56.512Z,5.89
2019-03-25T02:09:56.503Z,5.91
2019-03-25T02:10:56.483Z,5.88
2019-03-25T02:11:56.475Z,5.86
2019-03-25T02:12:56.462Z,5.89
2019-03-25T02:13:56.451Z,5.85
2019-03-25T02:14:56.440Z,5.85
2019-03-25T02:15:56.441Z,5.82
2019-03-25T02:16:56.420Z,5.83
2019-03-25T02:17:56.409Z,5.83
2019-03-25T02:18:56.399Z,5.75
2019-03-25T02:19:56.389Z,5.75
2019-03-25T02:20:56.378Z,5.78
2019-03-25T02:21:56.378Z,5.75
2019-03-25T02:22:56.518Z,5.81
2019-03-25T02:23:56.346Z,5.82
2019-03-25T02:24:56.338Z,5.82
2019-03-25T02:25:56.324Z,5.78
2019-03-25T02:26:56.315Z,5.81
2019-03-25T02:27:56.315Z,5.91
2019-03-25T02:28:56.293Z,5.91
2019-03-25T02:29:56.282Z,5.89
2019-03-25T02:30:56.273Z,5.86
2019-03-25T02:31:56.262Z,5.93
2019-03-25T02:32:56.252Z,5.96
2019-03-25T02:33:56.253Z,5.91
2019-03-25T02:34:56.232Z,5.86
2019-03-25T02:35:56.220Z,6.03
2019-03-25T02:36:56.209Z,5.89
2019-03-25T02:37:56.201Z,5.92
2019-03-25T02:38:56.193Z,6.01
2019-03-25T02:39:56.188Z,5.93
2019-03-25T02:40:56.168Z,5.89
2019-03-25T02:41:56.156Z,5.96
2019-03-25T02:42:56.147Z,5.85
2019-03-25T02:43:56.135Z,5.88
2019-03-25T02:44:56.126Z,5.73
2019-03-25T02:45:56.127Z,5.71
2019-03-25T02:46:56.104Z,5.71
2019-03-25T02:47:56.094Z,5.68
2019-03-25T02:48:56.085Z,5.63
2019-03-25T02:49:56.072Z,5.59
2019-03-25T02:50:56.061Z,5.52
2019-03-25T02:51:56.060Z,5.48
2019-03-25T02:52:56.040Z,5.27
2019-03-25T02:53:56.029Z,5.22
2019-03-25T02:54:56.018Z,5.04
2019-03-25T02:55:56.008Z,4.91
2019-03-25T02:56:55.998Z,4.76
2019-03-25T02:57:56.001Z,4.69
2019-03-25T02:58:55.974Z,4.61
2019-03-25T02:59:55.968Z,4.59
2019-03-25T03:00:55.955Z,4.57
2019-03-25T03:01:55.944Z,4.58
2019-03-25T03:02:55.936Z,4.50
2019-03-25T03:03:55.948Z,4.52
2019-03-25T03:04:55.911Z,4.44
2019-03-25T03:05:55.899Z,4.50
2019-03-25T03:06:55.889Z,4.43
2019-03-25T03:07:55.878Z,4.44
2019-03-25T03:08:55.869Z,4.54
2019-03-25T03:09:55.868Z,4.52
2019-03-25T03:10:55.848Z,4.52
2019-03-25T03:11:55.833Z,4.55
2019-03-25T03:12:55.824Z,4.58
2019-03-25T03:13:55.814Z,4.57
2019-03-25T03:14:55.822Z,4.51
2019-03-25T03:15:55.805Z,4.59
2019-03-25T03:16:55.785Z,4.57
2019-03-25T03:17:55.776Z,4.44
2019-03-25T03:18:55.784Z,4.43
2019-03-25T03:19:55.752Z,4.43
2019-03-25T03:20:55.739Z,4.57
2019-03-25T03:21:55.742Z,4.47
2019-03-25T03:22:55.735Z,4.52
2019-03-25T03:23:55.707Z,4.54
2019-03-25T03:24:55.697Z,4.57
2019-03-25T03:25:58.060Z,4.43
2019-03-25T03:26:55.678Z,4.44
2019-03-25T03:27:55.676Z,4.54
2019-03-25T03:28:55.655Z,4.50
2019-03-25T03:29:55.643Z,4.54
2019-03-25T03:30:55.644Z,4.57
2019-03-25T03:31:55.632Z,4.61
2019-03-25T03:32:55.652Z,4.62
2019-03-25T03:33:55.668Z,4.64
2019-03-25T03:34:55.617Z,4.61
2019-03-25T03:35:55.580Z,4.65
2019-03-25T03:36:55.575Z,4.62
2019-03-25T03:37:55.576Z,4.58
2019-03-25T03:38:55.550Z,4.44
2019-03-25T03:39:55.554Z,4.43
2019-03-25T03:40:55.529Z,4.43
2019-03-25T03:41:55.517Z,4.50
2019-03-25T03:42:55.505Z,4.47
2019-03-25T03:43:55.493Z,4.46
2019-03-25T03:44:55.486Z,4.43
2019-03-25T03:45:55.498Z,4.50
2019-03-25T03:46:55.461Z,4.50
2019-03-25T03:47:55.450Z,4.52
2019-03-25T03:48:55.439Z,4.52
2019-03-25T03:49:55.429Z,4.54
2019-03-25T03:50:55.418Z,4.51
2019-03-25T03:51:55.421Z,4.51
2019-03-25T03:52:55.399Z,4.46
2019-03-25T03:53:55.387Z,4.37
2019-03-25T03:54:55.376Z,4.39
2019-03-25T03:55:55.365Z,4.39
2019-03-25T03:56:55.363Z,4.37
2019-03-25T03:57:55.356Z,4.39
2019-03-25T03:58:55.334Z,4.26
2019-03-25T03:59:55.339Z,4.26
2019-03-25T04:00:55.320Z,4.28
2019-03-25T04:01:55.306Z,4.25
2019-03-25T04:02:55.296Z,4.29
2019-03-25T04:03:55.306Z,4.28
2019-03-25T04:04:55.281Z,4.26
2019-03-25T04:05:55.261Z,4.26
2019-03-25T04:06:55.250Z,4.33
2019-03-25T04:07:55.239Z,4.33
2019-03-25T04:08:55.228Z,4.24
2019-03-25T04:09:55.228Z,4.26
2019-03-25T04:10:55.207Z,4.10
2019-03-25T04:11:55.244Z,4.16
2019-03-25T04:12:55.189Z,4.21
2019-03-25T04:13:55.178Z,4.15
2019-03-25T04:14:55.166Z,4.22
2019-03-25T04:15:55.177Z,4.18
2019-03-25T04:16:55.145Z,4.14
2019-03-25T04:17:55.133Z,4.21
2019-03-25T04:18:55.123Z,4.08
2019-03-25T04:19:55.115Z,4.19
2019-03-25T04:20:55.101Z,4.16
2019-03-25T04:21:55.103Z,4.19
2019-03-25T04:22:55.080Z,4.14
2019-03-25T04:23:55.074Z,4.07
2019-03-25T04:24:55.059Z,4.10
2019-03-25T04:25:55.067Z,4.12
2019-03-25T04:26:55.038Z,4.16
2019-03-25T04:27:55.058Z,4.08
2019-03-25T04:28:55.016Z,4.06
2019-03-25T04:29:55.006Z,4.04
2019-03-25T04:30:54.994Z,4.03
2019-03-25T04:31:54.997Z,3.90
2019-03-25T04:32:54.971Z,3.92
2019-03-25T04:33:54.972Z,3.94
2019-03-25T04:34:54.952Z,3.96
2019-03-25T04:35:54.948Z,3.86
2019-03-25T04:36:54.929Z,4.00
2019-03-25T04:37:56.496Z,3.92
2019-03-25T04:38:54.907Z,3.90
2019-03-25T04:39:54.907Z,3.89
2019-03-25T04:40:54.886Z,3.83
2019-03-25T04:41:54.875Z,3.88
2019-03-25T04:42:54.867Z,3.88
2019-03-25T04:43:54.855Z,3.92
2019-03-25T04:44:54.844Z,3.89
2019-03-25T04:45:54.844Z,3.90
2019-03-25T04:46:54.821Z,3.90
2019-03-25T04:47:54.813Z,3.92
2019-03-25T04:48:54.799Z,3.96
2019-03-25T04:49:54.789Z,3.97
2019-03-25T04:50:54.777Z,3.96
2019-03-25T04:51:54.786Z,3.96
2019-03-25T04:52:54.756Z,3.97
2019-03-25T04:53:54.746Z,4.03
2019-03-25T04:54:54.736Z,4.03
2019-03-25T04:55:54.729Z,4.08
2019-03-25T04:56:54.718Z,4.04
2019-03-25T04:57:54.720Z,4.14
2019-03-25T04:58:54.695Z,4.07
2019-03-25T04:59:54.682Z,4.14
2019-03-25T05:00:54.672Z,4.08
2019-03-25T05:01:54.664Z,4.04
2019-03-25T05:02:54.651Z,4.14
2019-03-25T05:03:54.659Z,4.07
2019-03-25T05:04:54.632Z,4.08
2019-03-25T05:05:54.619Z,4.03
2019-03-25T05:06:54.627Z,4.00
2019-03-25T05:07:54.599Z,4.04
2019-03-25T05:08:54.588Z,4.07
2019-03-25T05:09:54.588Z,4.04
2019-03-25T05:10:54.566Z,3.92
2019-03-25T05:11:54.555Z,3.97
2019-03-25T05:12:54.547Z,3.97
2019-03-25T05:13:54.536Z,3.90
2019-03-25T05:14:54.524Z,3.94
2019-03-25T05:15:54.523Z,3.97
2019-03-25T05:16:54.503Z,3.90
2019-03-25T05:17:54.492Z,3.89
2019-03-25T05:18:54.482Z,3.94
2019-03-25T05:19:54.473Z,3.92
2019-03-25T05:20:54.465Z,4.06
2019-03-25T05:21:54.461Z,4.07
2019-03-25T05:22:54.439Z,4.07
2019-03-25T05:23:54.429Z,4.01
2019-03-25T05:24:54.418Z,4.06
2019-03-25T05:25:54.425Z,4.12
2019-03-25T05:26:54.397Z,4.10
2019-03-25T05:27:54.403Z,4.10
2019-03-25T05:28:54.378Z,4.22
2019-03-25T05:29:54.415Z,4.15
2019-03-25T05:30:54.361Z,4.12
2019-03-25T05:31:54.347Z,4.25
2019-03-25T05:32:54.334Z,4.21
2019-03-25T05:33:54.337Z,4.24
2019-03-25T05:34:54.362Z,4.21
2019-03-25T05:35:54.303Z,4.26
2019-03-25T05:36:54.293Z,4.25
2019-03-25T05:37:54.283Z,4.24
2019-03-25T05:38:54.272Z,4.33
2019-03-25T05:39:54.272Z,4.39
2019-03-25T05:40:54.252Z,4.34
2019-03-25T05:41:54.240Z,4.29
2019-03-25T05:42:54.233Z,4.28
2019-03-25T05:43:54.225Z,4.42
2019-03-25T05:44:54.210Z,4.28
2019-03-25T05:45:54.212Z,4.36
2019-03-25T05:46:54.188Z,4.33
2019-03-25T05:47:54.178Z,4.36
2019-03-25T05:48:54.169Z,4.33
2019-03-25T05:49:54.157Z,4.39
2019-03-25T05:50:54.147Z,4.33
2019-03-25T05:51:54.147Z,4.39
2019-03-25T05:52:54.126Z,4.42
2019-03-25T05:53:54.123Z,4.44
2019-03-25T05:54:54.106Z,4.42
2019-03-25T05:55:54.097Z,4.51
2019-03-25T05:57:02.329Z,4.52
2019-03-25T05:57:55.091Z,4.43
2019-03-25T05:58:54.063Z,4.50
2019-03-25T05:59:54.052Z,4.55
2019-03-25T06:00:54.093Z,4.62
2019-03-25T06:01:54.035Z,4.61
2019-03-25T06:02:54.020Z,4.55
2019-03-25T06:03:54.019Z,4.57
2019-03-25T06:04:54.002Z,4.61
2019-03-25T06:05:53.989Z,4.44
2019-03-25T06:06:53.976Z,4.54
2019-03-25T06:07:53.967Z,4.47
2019-03-25T06:08:53.954Z,4.46
2019-03-25T06:09:53.957Z,4.47
2019-03-25T06:10:53.932Z,4.51
2019-03-25T06:11:53.922Z,4.46
2019-03-25T06:12:53.911Z,4.47
2019-03-25T06:13:53.900Z,4.44
2019-03-25T06:14:53.889Z,4.58
2019-03-25T06:15:53.887Z,4.61
2019-03-25T06:16:53.866Z,4.67
2019-03-25T06:17:53.855Z,4.70
2019-03-25T06:18:53.845Z,4.94
2019-03-25T06:19:53.833Z,4.95
2019-03-25T06:20:53.827Z,5.10
2019-03-25T06:21:53.822Z,5.07
2019-03-25T06:22:53.803Z,5.09
2019-03-25T06:23:53.790Z,5.16
2019-03-25T06:24:53.781Z,5.35
2019-03-25T06:25:53.775Z,5.49
2019-03-25T06:26:53.759Z,5.48
2019-03-25T06:27:53.759Z,5.48
2019-03-25T06:28:53.741Z,5.64
2019-03-25T06:29:53.727Z,5.77
2019-03-25T06:30:53.721Z,5.92
2019-03-25T06:31:53.705Z,5.82
2019-03-25T06:32:53.694Z,5.88
2019-03-25T06:33:53.693Z,5.98
2019-03-25T06:34:53.672Z,6.07
2019-03-25T06:35:53.663Z,5.96
2019-03-25T06:36:53.656Z,5.91
2019-03-25T06:37:53.642Z,5.78
2019-03-25T06:38:53.630Z,5.70
2019-03-25T06:39:53.631Z,5.66
2019-03-25T06:40:53.617Z,5.74
2019-03-25T06:41:53.597Z,5.73
2019-03-25T06:42:53.587Z,5.64
2019-03-25T06:43:53.576Z,5.52
2019-03-25T06:44:53.570Z,5.45
2019-03-25T06:45:53.613Z,5.17
2019-03-25T06:46:53.543Z,5.12
2019-03-25T06:47:53.533Z,5.02
2019-03-25T06:48:53.522Z,4.98
2019-03-25T06:49:53.511Z,4.91
2019-03-25T06:50:53.501Z,4.94
2019-03-25T06:51:53.501Z,4.80
2019-03-25T06:52:53.479Z,4.88
2019-03-25T06:53:53.468Z,4.80
2019-03-25T06:54:53.458Z,4.88
2019-03-25T06:55:53.446Z,4.83
2019-03-25T06:56:53.436Z,4.91
2019-03-25T06:57:53.438Z,4.91
2019-03-25T06:58:53.416Z,4.89
2019-03-25T06:59:53.404Z,4.91
2019-03-25T07:00:53.394Z,4.89
2019-03-25T07:01:53.383Z,4.88
2019-03-25T07:02:53.372Z,4.95
2019-03-25T07:03:53.380Z,4.94
2019-03-25T07:04:53.358Z,5.02
2019-03-25T07:05:53.340Z,5.04
2019-03-25T07:06:53.328Z,5.05
2019-03-25T07:07:53.318Z,5.14
2019-03-25T07:08:53.307Z,5.22
2019-03-25T07:09:53.306Z,5.41
2019-03-25T07:10:53.285Z,5.49
2019-03-25T07:11:53.274Z,5.55
2019-03-25T07:12:53.263Z,5.74
2019-03-25T07:13:53.252Z,5.89
2019-03-25T07:14:53.258Z,5.98
2019-03-25T07:15:53.244Z,5.88
2019-03-25T07:16:53.223Z,5.98
2019-03-25T07:17:53.210Z,5.81
2019-03-25T07:18:53.199Z,5.75
2019-03-25T07:19:53.190Z,5.66
2019-03-25T07:20:53.178Z,5.56
2019-03-25T07:21:53.179Z,5.52
2019-03-25T07:22:53.157Z,5.60
2019-03-25T07:23:53.147Z,5.43
2019-03-25T07:24:53.135Z,5.46
2019-03-25T07:25:53.127Z,5.37
2019-03-25T07:26:55.509Z,5.38
2019-03-25T07:27:53.115Z,5.31
2019-03-25T07:28:53.094Z,5.31
2019-03-25T07:29:53.084Z,5.34
2019-03-25T07:30:53.071Z,5.32
2019-03-25T07:31:53.062Z,5.41
2019-03-25T07:32:53.051Z,5.32
2019-03-25T07:33:53.052Z,5.32
2019-03-25T07:34:53.031Z,5.52
2019-03-25T07:35:53.018Z,5.48
2019-03-25T07:36:53.008Z,5.40
2019-03-25T07:37:52.999Z,5.50
2019-03-25T07:38:52.986Z,5.52
2019-03-25T07:39:52.986Z,5.50
2019-03-25T07:40:52.964Z,5.48
2019-03-25T07:41:52.953Z,5.59
2019-03-25T07:42:52.943Z,5.64
2019-03-25T07:43:52.932Z,5.74
2019-03-25T07:44:52.924Z,5.71
2019-03-25T07:45:52.922Z,5.75
2019-03-25T07:46:52.900Z,5.92
2019-03-25T07:47:52.889Z,6.10
2019-03-25T07:48:52.879Z,6.41
2019-03-25T07:49:52.869Z,6.43
2019-03-25T07:50:52.857Z,6.40
2019-03-25T07:51:52.857Z,6.38
2019-03-25T07:52:52.835Z,6.46
2019-03-25T07:53:52.846Z,6.44
2019-03-25T07:54:52.815Z,6.29
2019-03-25T07:55:52.805Z,6.29
2019-03-25T07:56:52.792Z,6.10
2019-03-25T07:57:52.806Z,6.09
2019-03-25T07:58:52.770Z,6.01
2019-03-25T07:59:52.764Z,6.01
2019-03-25T08:00:52.759Z,6.00
2019-03-25T08:01:52.767Z,6.04
2019-03-25T08:02:52.732Z,6.10
2019-03-25T08:03:52.754Z,6.14
2019-03-25T08:04:52.726Z,6.29
2019-03-25T08:05:52.696Z,6.36
2019-03-25T08:06:52.696Z,6.40
2019-03-25T08:07:52.675Z,6.62
2019-03-25T08:09:03.137Z,6.71
2019-03-25T08:09:53.670Z,6.77
2019-03-25T08:10:52.644Z,6.79
2019-03-25T08:11:52.639Z,7.04
2019-03-25T08:12:52.623Z,7.13
2019-03-25T08:13:52.633Z,7.07
2019-03-25T08:14:52.607Z,7.17
2019-03-25T08:15:52.614Z,7.29
2019-03-25T08:16:52.625Z,7.16
2019-03-25T08:17:52.569Z,7.13
2019-03-25T08:18:52.555Z,7.07
2019-03-25T08:19:52.545Z,7.22
2019-03-25T08:20:52.534Z,7.29
2019-03-25T08:21:52.541Z,7.34
2019-03-25T08:22:52.512Z,7.35
2019-03-25T08:23:52.501Z,7.32
2019-03-25T08:24:52.492Z,7.23
2019-03-25T08:25:52.481Z,7.24
2019-03-25T08:26:52.469Z,7.15
2019-03-25T08:27:59.934Z,7.12
2019-03-25T08:28:53.455Z,7.13
2019-03-25T08:29:52.443Z,7.20
2019-03-25T08:30:52.426Z,7.20
2019-03-25T08:31:52.416Z,7.29
2019-03-25T08:32:52.407Z,7.53
2019-03-25T08:33:52.406Z,7.62
2019-03-25T08:34:52.383Z,7.67
2019-03-25T08:35:52.372Z,7.49
2019-03-25T08:36:52.361Z,7.44
2019-03-25T08:37:52.355Z,7.52
2019-03-25T08:38:52.340Z,7.67
2019-03-25T08:39:52.341Z,7.59
2019-03-25T08:40:52.347Z,7.52
2019-03-25T08:41:52.311Z,7.53
2019-03-25T08:42:52.296Z,7.59
2019-03-25T08:43:52.285Z,7.66
2019-03-25T08:44:52.273Z,7.63
2019-03-25T08:45:52.273Z,7.69
2019-03-25T08:46:52.258Z,7.53
2019-03-25T08:47:52.241Z,7.49
2019-03-25T08:48:52.229Z,7.42
2019-03-25T08:49:52.230Z,7.41
2019-03-25T08:50:52.212Z,7.38
2019-03-25T08:51:52.208Z,7.35
2019-03-25T08:52:52.187Z,7.32
2019-03-25T08:53:52.175Z,7.35
2019-03-25T08:54:52.165Z,7.26
2019-03-25T08:55:52.154Z,7.12
2019-03-25T08:56:52.144Z,7.07
2019-03-25T08:57:52.152Z,7.16
2019-03-25T08:58:52.120Z,7.27
2019-03-25T08:59:52.109Z,7.09
2019-03-25T09:00:52.098Z,7.16
2019-03-25T09:01:52.092Z,7.22
2019-03-25T09:02:52.076Z,7.22
2019-03-25T09:03:52.076Z,7.12
2019-03-25T09:04:52.055Z,7.24
2019-03-25T09:05:52.044Z,7.13
2019-03-25T09:06:52.033Z,7.23
2019-03-25T09:07:52.022Z,7.17
2019-03-25T09:08:52.011Z,7.07
2019-03-25T09:09:52.012Z,7.12
2019-03-25T09:10:51.991Z,7.08
2019-03-25T09:11:52.008Z,7.16
2019-03-25T09:12:51.968Z,7.12
2019-03-25T09:13:51.967Z,7.29
2019-03-25T09:14:51.949Z,7.34
2019-03-25T09:15:51.961Z,7.66
2019-03-25T09:16:51.929Z,7.78
2019-03-25T09:17:51.917Z,7.94
2019-03-25T09:18:51.903Z,7.89
2019-03-25T09:19:51.905Z,8.04
2019-03-25T09:20:51.884Z,8.08
2019-03-25T09:21:51.899Z,8.03
2019-03-25T09:22:51.859Z,7.92
2019-03-25T09:23:51.866Z,7.72
2019-03-25T09:24:51.840Z,7.66
2019-03-25T09:25:51.844Z,7.67
2019-03-25T09:26:51.816Z,7.50
2019-03-25T09:27:51.847Z,7.53
2019-03-25T09:28:51.799Z,7.66
2019-03-25T09:29:51.787Z,7.63
2019-03-25T09:30:51.773Z,7.56
2019-03-25T09:31:51.768Z,7.67
2019-03-25T09:32:51.751Z,7.96
2019-03-25T09:33:51.750Z,8.14
2019-03-25T09:34:51.731Z,8.14
2019-03-25T09:35:51.765Z,8.48
2019-03-25T09:36:51.707Z,8.53
2019-03-25T09:37:52.818Z,8.42
2019-03-25T09:38:51.690Z,8.28
2019-03-25T09:39:51.686Z,8.12
2019-03-25T09:40:51.664Z,7.97
2019-03-25T09:41:51.652Z,7.74
2019-03-25T09:42:51.643Z,7.37
2019-03-25T09:43:51.631Z,7.24
2019-03-25T09:44:51.620Z,7.13
2019-03-25T09:45:51.620Z,6.95
2019-03-25T09:46:51.598Z,6.80
2019-03-25T09:47:51.594Z,6.62
2019-03-25T09:48:51.579Z,6.41
2019-03-25T09:49:51.570Z,6.35
2019-03-25T09:50:51.555Z,6.19
2019-03-25T09:51:52.915Z,6.09
2019-03-25T09:52:51.534Z,6.07
2019-03-25T09:53:51.525Z,6.06
2019-03-25T09:54:51.512Z,6.21
2019-03-25T09:55:51.503Z,6.32
2019-03-25T09:56:51.492Z,6.47
2019-03-25T09:57:51.498Z,6.73
2019-03-25T09:58:51.468Z,7.01
2019-03-25T09:59:51.457Z,7.19
2019-03-25T10:00:52.225Z,7.31
2019-03-25T10:01:51.437Z,7.53
2019-03-25T10:02:51.428Z,7.50
2019-03-25T10:03:51.433Z,7.79
2019-03-25T10:04:51.404Z,7.82
2019-03-25T10:05:51.397Z,7.75
2019-03-25T10:06:51.381Z,7.84
2019-03-25T10:07:51.371Z,7.94
2019-03-25T10:08:51.359Z,7.99
2019-03-25T10:09:51.397Z,8.08
2019-03-25T10:10:51.338Z,8.12
2019-03-25T10:11:51.328Z,8.14
2019-03-25T10:12:51.317Z,8.26
2019-03-25T10:13:51.337Z,8.37
2019-03-25T10:14:51.295Z,8.40
2019-03-25T10:15:51.297Z,8.28
2019-03-25T10:16:51.272Z,8.29
2019-03-25T10:17:51.269Z,8.28
2019-03-25T10:18:51.255Z,8.42
2019-03-25T10:19:51.241Z,8.58
2019-03-25T10:20:51.230Z,8.50
2019-03-25T10:21:51.229Z,8.44
2019-03-25T10:22:51.209Z,8.42
2019-03-25T10:23:51.206Z,8.37
2019-03-25T10:24:51.191Z,8.45
2019-03-25T10:25:51.175Z,8.55
2019-03-25T10:26:51.165Z,8.60
2019-03-25T10:27:51.165Z,8.62
2019-03-25T10:28:51.144Z,8.66
2019-03-25T10:29:51.138Z,8.69
2019-03-25T10:30:51.121Z,8.71
2019-03-25T10:31:51.111Z,8.69
2019-03-25T10:32:51.100Z,8.83
2019-03-25T10:33:51.102Z,8.91
2019-03-25T10:34:51.081Z,8.86
2019-03-25T10:35:51.073Z,9.04
2019-03-25T10:36:51.057Z,9.02
2019-03-25T10:37:51.048Z,8.97
2019-03-25T10:38:51.037Z,9.02
2019-03-25T10:39:51.048Z,8.97
2019-03-25T10:40:51.045Z,8.90
2019-03-25T10:41:51.005Z,8.97
2019-03-25T10:42:50.993Z,8.99
2019-03-25T10:43:50.981Z,9.09
2019-03-25T10:44:50.971Z,9.10
2019-03-25T10:45:50.977Z,9.27
2019-03-25T10:46:50.950Z,9.15
2019-03-25T10:47:50.959Z,9.15
2019-03-25T10:48:50.940Z,9.18
2019-03-25T10:49:50.919Z,9.10
2019-03-25T10:50:50.918Z,9.21
2019-03-25T10:51:50.912Z,9.15
2019-03-25T10:52:50.919Z,9.25
2019-03-25T10:53:50.871Z,9.24
2019-03-25T10:54:51.067Z,9.09
2019-03-25T10:55:50.849Z,9.02
2019-03-25T10:56:50.839Z,9.06
2019-03-25T10:57:50.838Z,9.06
2019-03-25T10:58:57.975Z,8.83
2019-03-25T10:59:51.804Z,8.84
2019-03-25T11:00:50.795Z,8.88
2019-03-25T11:01:50.783Z,8.68
2019-03-25T11:02:50.773Z,8.44
2019-03-25T11:03:50.774Z,8.11
2019-03-25T11:04:50.751Z,7.74
2019-03-25T11:05:50.740Z,7.59
2019-03-25T11:06:50.729Z,7.31
2019-03-25T11:07:50.720Z,7.07
2019-03-25T11:08:50.707Z,7.02
2019-03-25T11:09:50.710Z,6.80
2019-03-25T11:10:50.687Z,6.76
2019-03-25T11:11:50.677Z,6.66
2019-03-25T11:12:50.665Z,6.62
2019-03-25T11:13:50.655Z,6.63
2019-03-25T11:14:50.643Z,6.62
2019-03-25T11:15:50.647Z,6.63
2019-03-25T11:16:50.622Z,6.65
2019-03-25T11:17:50.615Z,6.65
2019-03-25T11:18:50.602Z,6.69
2019-03-25T11:19:50.589Z,6.72
2019-03-25T11:20:50.578Z,6.63
2019-03-25T11:21:50.583Z,6.62
2019-03-25T11:22:50.557Z,6.66
2019-03-25T11:23:50.549Z,6.66
2019-03-25T11:24:50.538Z,6.61
2019-03-25T11:25:50.528Z,6.65
2019-03-25T11:26:50.515Z,6.59
2019-03-25T11:27:54.478Z,6.58
2019-03-25T11:28:50.493Z,6.61
2019-03-25T11:29:50.511Z,6.63
2019-03-25T11:30:50.480Z,6.63
2019-03-25T11:31:50.461Z,6.84
2019-03-25T11:32:50.451Z,6.76
2019-03-25T11:33:50.450Z,6.98
2019-03-25T11:34:50.430Z,7.02
2019-03-25T11:35:50.419Z,7.17
2019-03-25T11:36:50.408Z,7.38
2019-03-25T11:37:50.398Z,7.45
2019-03-25T11:38:50.388Z,7.59
2019-03-25T11:39:50.386Z,7.67
2019-03-25T11:40:50.368Z,7.69
2019-03-25T11:41:50.355Z,7.81
2019-03-25T11:42:50.348Z,7.92
2019-03-25T11:43:50.344Z,7.96
2019-03-25T11:44:50.340Z,8.17
2019-03-25T11:45:50.338Z,8.30
2019-03-25T11:46:50.302Z,8.39
2019-03-25T11:47:50.291Z,8.42
2019-03-25T11:48:50.280Z,8.51
2019-03-25T11:49:50.273Z,8.57
2019-03-25T11:50:50.262Z,8.76
2019-03-25T11:51:50.259Z,8.81
2019-03-25T11:52:50.236Z,8.81
2019-03-25T11:53:50.230Z,8.73
2019-03-25T11:54:50.215Z,8.84
2019-03-25T11:55:50.203Z,8.91
2019-03-25T11:56:50.192Z,8.94
2019-03-25T11:57:50.199Z,9.05
2019-03-25T11:58:50.171Z,9.06
2019-03-25T11:59:50.160Z,9.10
2019-03-25T12:00:50.150Z,9.18
2019-03-25T12:01:50.139Z,9.23
2019-03-25T12:02:50.129Z,9.32
2019-03-25T12:03:50.134Z,9.31
2019-03-25T12:04:50.133Z,9.42
2019-03-25T12:05:50.097Z,9.39
2019-03-25T12:06:50.088Z,9.32
2019-03-25T12:07:50.074Z,9.32
2019-03-25T12:08:50.064Z,9.35
2019-03-25T12:09:50.067Z,9.46
2019-03-25T12:10:50.043Z,9.46
2019-03-25T12:11:50.032Z,9.53
2019-03-25T12:12:50.020Z,9.73
2019-03-25T12:13:50.009Z,9.83
2019-03-25T12:14:49.998Z,9.81
2019-03-25T12:15:49.999Z,9.82
2019-03-25T12:16:49.976Z,9.94
2019-03-25T12:17:49.965Z,10.03
2019-03-25T12:18:49.954Z,10.14
2019-03-25T12:19:49.944Z,10.12
2019-03-25T12:20:49.933Z,10.21
2019-03-25T12:21:49.933Z,10.10
2019-03-25T12:22:49.911Z,10.12
2019-03-25T12:23:49.900Z,10.17
2019-03-25T12:24:49.889Z,10.10
2019-03-25T12:25:49.879Z,9.99
2019-03-25T12:26:49.868Z,9.88
2019-03-25T12:27:49.871Z,9.86
2019-03-25T12:28:49.847Z,9.85
2019-03-25T12:29:49.835Z,9.88
2019-03-25T12:30:49.824Z,9.76
2019-03-25T12:31:49.814Z,9.67
2019-03-25T12:32:49.804Z,9.56
2019-03-25T12:33:49.811Z,9.45
2019-03-25T12:34:49.780Z,9.40
2019-03-25T12:35:49.770Z,9.46
2019-03-25T12:36:49.760Z,9.49
2019-03-25T12:37:49.749Z,9.57
2019-03-25T12:38:49.739Z,9.57
2019-03-25T12:39:49.739Z,9.61
2019-03-25T12:40:49.716Z,9.76
2019-03-25T12:41:49.704Z,9.82
2019-03-25T12:42:49.696Z,10.09
2019-03-25T12:43:49.684Z,10.12
2019-03-25T12:44:49.674Z,10.04
2019-03-25T12:45:49.678Z,10.12
2019-03-25T12:46:49.651Z,9.97
2019-03-25T12:47:49.639Z,9.68
2019-03-25T12:48:49.632Z,9.53
2019-03-25T12:49:49.618Z,9.43
2019-03-25T12:50:49.609Z,9.38
2019-03-25T12:51:49.610Z,9.18
2019-03-25T12:52:49.586Z,9.15
2019-03-25T12:53:49.583Z,8.99
2019-03-25T12:54:49.567Z,8.79
2019-03-25T12:55:49.615Z,8.54
2019-03-25T12:56:49.546Z,8.48
2019-03-25T12:57:49.542Z,8.32
2019-03-25T12:58:49.524Z,8.25
2019-03-25T12:59:49.516Z,8.25
2019-03-25T13:00:49.499Z,8.35
2019-03-25T13:01:53.104Z,8.47
2019-03-25T13:02:49.476Z,8.53
2019-03-25T13:03:49.478Z,8.60
2019-03-25T13:04:49.454Z,8.76
2019-03-25T13:05:49.455Z,8.84
2019-03-25T13:06:49.435Z,8.90
2019-03-25T13:07:49.422Z,9.09
2019-03-25T13:08:49.411Z,9.09
2019-03-25T13:09:49.412Z,9.13
2019-03-25T13:10:49.444Z,9.15
2019-03-25T13:11:49.381Z,9.15
2019-03-25T13:12:49.368Z,9.18
2019-03-25T13:13:49.357Z,9.23
2019-03-25T13:14:49.347Z,9.20
2019-03-25T13:15:49.348Z,9.24
2019-03-25T13:16:49.326Z,9.34
2019-03-25T13:17:49.314Z,9.31
2019-03-25T13:18:49.304Z,9.23